sensor_id;sensor_type;location;lat;lon;timestamp;temperature;humidity
7792;DHT22;3940;49.892;10.886;2022-08-19T00:01:14;22.80;99.90
7792;DHT22;3940;49.892;10.886;2022-08-19T00:04:01;22.70;99.90
7792;DHT22;3940;49.892;10.886;2022-08-19T00:06:46;22.60;99.90
7792;DHT22;3940;49.892;10.886;2022-08-19T00:09:31;22.60;99.90
7792;DHT22;3940;49.892;10.886;2022-08-19T00:12:15;22.60;99.90
7792;DHT22;3940;49.892;10.886;2022-08-19T00:15:00;22.60;99.90
7792;DHT22;3940;49.892;10.886;2022-08-19T00:17:45;22.50;99.90
7792;DHT22;3940;49.892;10.886;2022-08-19T00:20:30;22.50;99.90
7792;DHT22;3940;49.892;10.886;2022-08-19T00:23:14;22.50;99.90
7792;DHT22;3940;49.892;10.886;2022-08-19T00:26:00;22.50;99.90
7792;DHT22;3940;49.892;10.886;2022-08-19T00:28:45;22.50;99.90
7792;DHT22;3940;49.892;10.886;2022-08-19T00:31:30;22.50;99.90
7792;DHT22;3940;49.892;10.886;2022-08-19T00:34:15;22.50;99.90
7792;DHT22;3940;49.892;10.886;2022-08-19T00:36:59;22.50;99.90
7792;DHT22;3940;49.892;10.886;2022-08-19T00:39:43;22.40;99.90
7792;DHT22;3940;49.892;10.886;2022-08-19T00:42:28;22.40;99.90
7792;DHT22;3940;49.892;10.886;2022-08-19T00:45:16;22.40;99.90
7792;DHT22;3940;49.892;10.886;2022-08-19T00:48:01;22.40;99.90
7792;DHT22;3940;49.892;10.886;2022-08-19T00:50:50;22.40;99.90
7792;DHT22;3940;49.892;10.886;2022-08-19T00:53:36;22.40;99.90
7792;DHT22;3940;49.892;10.886;2022-08-19T00:56:21;22.30;99.90
7792;DHT22;3940;49.892;10.886;2022-08-19T00:59:06;22.30;99.90
7792;DHT22;3940;49.892;10.886;2022-08-19T01:01:53;22.20;99.90
7792;DHT22;3940;49.892;10.886;2022-08-19T01:04:38;22.20;99.90
7792;DHT22;3940;49.892;10.886;2022-08-19T01:07:22;22.10;99.90
7792;DHT22;3940;49.892;10.886;2022-08-19T01:10:11;22.20;99.90
7792;DHT22;3940;49.892;10.886;2022-08-19T01:12:58;22.10;99.90
7792;DHT22;3940;49.892;10.886;2022-08-19T01:15:50;22.10;99.90
7792;DHT22;3940;49.892;10.886;2022-08-19T01:18:40;22.10;99.90
7792;DHT22;3940;49.892;10.886;2022-08-19T01:21:40;22.10;99.90
7792;DHT22;3940;49.892;10.886;2022-08-19T01:24:25;22.20;99.90
7792;DHT22;3940;49.892;10.886;2022-08-19T01:27:11;22.10;99.90
7792;DHT22;3940;49.892;10.886;2022-08-19T01:29:55;22.10;99.90
7792;DHT22;3940;49.892;10.886;2022-08-19T01:32:40;22.10;99.90
7792;DHT22;3940;49.892;10.886;2022-08-19T01:35:25;22.00;99.90
7792;DHT22;3940;49.892;10.886;2022-08-19T01:38:21;21.90;99.90
7792;DHT22;3940;49.892;10.886;2022-08-19T01:41:06;21.90;99.90
7792;DHT22;3940;49.892;10.886;2022-08-19T01:43:52;21.90;99.90
7792;DHT22;3940;49.892;10.886;2022-08-19T01:46:37;21.80;99.90
7792;DHT22;3940;49.892;10.886;2022-08-19T01:49:23;21.60;99.90
7792;DHT22;3940;49.892;10.886;2022-08-19T01:52:09;21.30;99.90
7792;DHT22;3940;49.892;10.886;2022-08-19T01:54:54;21.10;99.90
7792;DHT22;3940;49.892;10.886;2022-08-19T01:57:39;21.30;99.90
7792;DHT22;3940;49.892;10.886;2022-08-19T02:00:26;21.50;99.90
7792;DHT22;3940;49.892;10.886;2022-08-19T02:03:12;21.70;99.90
7792;DHT22;3940;49.892;10.886;2022-08-19T02:05:59;21.60;99.90
7792;DHT22;3940;49.892;10.886;2022-08-19T02:08:43;21.70;99.90
7792;DHT22;3940;49.892;10.886;2022-08-19T02:11:33;21.70;99.90
7792;DHT22;3940;49.892;10.886;2022-08-19T02:14:17;21.80;99.90
7792;DHT22;3940;49.892;10.886;2022-08-19T02:17:02;21.90;99.90
7792;DHT22;3940;49.892;10.886;2022-08-19T02:19:47;22.00;99.90
7792;DHT22;3940;49.892;10.886;2022-08-19T02:22:34;22.00;99.90
7792;DHT22;3940;49.892;10.886;2022-08-19T02:25:19;22.00;99.90
7792;DHT22;3940;49.892;10.886;2022-08-19T02:28:04;22.00;99.90
7792;DHT22;3940;49.892;10.886;2022-08-19T02:30:49;22.00;99.90
7792;DHT22;3940;49.892;10.886;2022-08-19T02:33:34;22.10;99.90
7792;DHT22;3940;49.892;10.886;2022-08-19T02:36:19;22.10;99.90
7792;DHT22;3940;49.892;10.886;2022-08-19T02:39:03;22.10;99.90
7792;DHT22;3940;49.892;10.886;2022-08-19T02:41:48;22.10;99.90
7792;DHT22;3940;49.892;10.886;2022-08-19T02:44:34;22.10;99.90
7792;DHT22;3940;49.892;10.886;2022-08-19T02:47:19;22.00;99.90
7792;DHT22;3940;49.892;10.886;2022-08-19T02:50:04;22.00;99.90
7792;DHT22;3940;49.892;10.886;2022-08-19T02:52:51;21.90;99.90
7792;DHT22;3940;49.892;10.886;2022-08-19T02:55:35;21.80;99.90
7792;DHT22;3940;49.892;10.886;2022-08-19T02:58:21;21.70;99.90
7792;DHT22;3940;49.892;10.886;2022-08-19T03:01:06;21.70;99.90
7792;DHT22;3940;49.892;10.886;2022-08-19T03:03:51;21.70;99.90
7792;DHT22;3940;49.892;10.886;2022-08-19T03:06:37;21.80;99.90
7792;DHT22;3940;49.892;10.886;2022-08-19T03:09:21;21.80;99.90
7792;DHT22;3940;49.892;10.886;2022-08-19T03:12:06;21.60;99.90
7792;DHT22;3940;49.892;10.886;2022-08-19T03:14:51;21.80;99.90
7792;DHT22;3940;49.892;10.886;2022-08-19T03:17:36;21.80;99.90
7792;DHT22;3940;49.892;10.886;2022-08-19T03:20:21;21.70;99.90
7792;DHT22;3940;49.892;10.886;2022-08-19T03:23:06;21.40;99.90
7792;DHT22;3940;49.892;10.886;2022-08-19T03:25:52;21.30;99.90
7792;DHT22;3940;49.892;10.886;2022-08-19T03:28:38;21.30;99.90
7792;DHT22;3940;49.892;10.886;2022-08-19T03:31:23;21.30;99.90
7792;DHT22;3940;49.892;10.886;2022-08-19T03:34:08;21.20;99.90
7792;DHT22;3940;49.892;10.886;2022-08-19T03:36:56;20.90;99.90
7792;DHT22;3940;49.892;10.886;2022-08-19T03:39:41;20.90;99.90
7792;DHT22;3940;49.892;10.886;2022-08-19T03:42:26;21.00;99.90
7792;DHT22;3940;49.892;10.886;2022-08-19T03:45:11;21.10;99.90
7792;DHT22;3940;49.892;10.886;2022-08-19T03:47:56;21.00;99.90
7792;DHT22;3940;49.892;10.886;2022-08-19T03:50:40;21.00;99.90
7792;DHT22;3940;49.892;10.886;2022-08-19T03:53:26;21.00;99.90
7792;DHT22;3940;49.892;10.886;2022-08-19T03:56:11;21.00;99.90
7792;DHT22;3940;49.892;10.886;2022-08-19T03:58:58;21.30;99.90
7792;DHT22;3940;49.892;10.886;2022-08-19T04:01:43;21.50;99.90
7792;DHT22;3940;49.892;10.886;2022-08-19T04:04:29;21.50;99.90
7792;DHT22;3940;49.892;10.886;2022-08-19T04:07:14;21.50;99.90
7792;DHT22;3940;49.892;10.886;2022-08-19T04:10:00;21.60;99.90
7792;DHT22;3940;49.892;10.886;2022-08-19T04:12:44;21.60;99.90
7792;DHT22;3940;49.892;10.886;2022-08-19T04:15:30;21.60;99.90
7792;DHT22;3940;49.892;10.886;2022-08-19T04:18:19;21.60;99.90
7792;DHT22;3940;49.892;10.886;2022-08-19T04:21:04;21.50;99.90
7792;DHT22;3940;49.892;10.886;2022-08-19T04:23:49;21.50;99.90
7792;DHT22;3940;49.892;10.886;2022-08-19T04:26:35;21.50;99.90
7792;DHT22;3940;49.892;10.886;2022-08-19T04:29:23;21.50;99.90
7792;DHT22;3940;49.892;10.886;2022-08-19T04:32:09;21.50;99.90
7792;DHT22;3940;49.892;10.886;2022-08-19T04:34:53;21.50;99.90
7792;DHT22;3940;49.892;10.886;2022-08-19T04:37:43;21.60;99.90
7792;DHT22;3940;49.892;10.886;2022-08-19T04:40:27;21.70;99.90
7792;DHT22;3940;49.892;10.886;2022-08-19T04:43:30;21.70;99.90
7792;DHT22;3940;49.892;10.886;2022-08-19T04:46:15;21.70;99.90
7792;DHT22;3940;49.892;10.886;2022-08-19T04:49:03;21.70;99.90
7792;DHT22;3940;49.892;10.886;2022-08-19T04:51:50;21.80;99.90
7792;DHT22;3940;49.892;10.886;2022-08-19T04:54:45;21.80;99.90
7792;DHT22;3940;49.892;10.886;2022-08-19T04:57:29;21.80;99.90
7792;DHT22;3940;49.892;10.886;2022-08-19T05:00:13;21.70;99.90
7792;DHT22;3940;49.892;10.886;2022-08-19T05:02:58;21.70;99.90
7792;DHT22;3940;49.892;10.886;2022-08-19T05:05:44;21.70;99.90
7792;DHT22;3940;49.892;10.886;2022-08-19T05:08:29;21.60;99.90
7792;DHT22;3940;49.892;10.886;2022-08-19T05:11:17;21.70;99.90
7792;DHT22;3940;49.892;10.886;2022-08-19T05:14:01;21.70;99.90
7792;DHT22;3940;49.892;10.886;2022-08-19T05:16:45;21.70;99.90
7792;DHT22;3940;49.892;10.886;2022-08-19T05:19:29;21.60;99.90
7792;DHT22;3940;49.892;10.886;2022-08-19T05:22:32;21.50;99.90
7792;DHT22;3940;49.892;10.886;2022-08-19T05:25:20;21.60;99.90
7792;DHT22;3940;49.892;10.886;2022-08-19T05:28:04;21.60;99.90
7792;DHT22;3940;49.892;10.886;2022-08-19T05:30:48;21.80;99.90
7792;DHT22;3940;49.892;10.886;2022-08-19T05:33:34;21.70;99.90
7792;DHT22;3940;49.892;10.886;2022-08-19T05:36:19;21.70;99.90
7792;DHT22;3940;49.892;10.886;2022-08-19T05:39:04;21.70;99.90
7792;DHT22;3940;49.892;10.886;2022-08-19T05:41:52;21.70;99.90
7792;DHT22;3940;49.892;10.886;2022-08-19T05:44:40;21.70;99.90
7792;DHT22;3940;49.892;10.886;2022-08-19T05:47:28;21.80;99.90
7792;DHT22;3940;49.892;10.886;2022-08-19T05:50:13;21.80;99.90
7792;DHT22;3940;49.892;10.886;2022-08-19T05:52:57;21.70;99.90
7792;DHT22;3940;49.892;10.886;2022-08-19T05:55:42;21.70;99.90
7792;DHT22;3940;49.892;10.886;2022-08-19T05:58:26;21.50;99.90
7792;DHT22;3940;49.892;10.886;2022-08-19T06:01:14;21.60;99.90
7792;DHT22;3940;49.892;10.886;2022-08-19T06:03:59;21.60;99.90
7792;DHT22;3940;49.892;10.886;2022-08-19T06:06:44;21.70;99.90
7792;DHT22;3940;49.892;10.886;2022-08-19T06:09:29;21.80;99.90
7792;DHT22;3940;49.892;10.886;2022-08-19T06:12:13;21.90;99.90
7792;DHT22;3940;49.892;10.886;2022-08-19T06:14:58;21.90;99.90
7792;DHT22;3940;49.892;10.886;2022-08-19T06:17:43;21.90;99.90
7792;DHT22;3940;49.892;10.886;2022-08-19T06:20:28;21.90;99.90
7792;DHT22;3940;49.892;10.886;2022-08-19T06:23:13;22.00;99.90
7792;DHT22;3940;49.892;10.886;2022-08-19T06:25:57;21.90;99.90
7792;DHT22;3940;49.892;10.886;2022-08-19T06:28:42;21.90;99.90
7792;DHT22;3940;49.892;10.886;2022-08-19T06:31:30;21.90;99.90
7792;DHT22;3940;49.892;10.886;2022-08-19T06:34:18;21.90;99.90
7792;DHT22;3940;49.892;10.886;2022-08-19T06:37:03;21.80;99.90
7792;DHT22;3940;49.892;10.886;2022-08-19T06:39:48;21.80;99.90
7792;DHT22;3940;49.892;10.886;2022-08-19T06:42:32;21.80;99.90
7792;DHT22;3940;49.892;10.886;2022-08-19T06:45:17;21.80;99.90
7792;DHT22;3940;49.892;10.886;2022-08-19T06:48:02;21.80;99.90
7792;DHT22;3940;49.892;10.886;2022-08-19T06:51:09;21.80;99.90
7792;DHT22;3940;49.892;10.886;2022-08-19T06:53:54;21.80;99.90
7792;DHT22;3940;49.892;10.886;2022-08-19T06:56:39;21.90;99.90
7792;DHT22;3940;49.892;10.886;2022-08-19T06:59:25;21.90;99.90
7792;DHT22;3940;49.892;10.886;2022-08-19T07:02:11;21.80;99.90
7792;DHT22;3940;49.892;10.886;2022-08-19T07:04:57;21.80;99.90
7792;DHT22;3940;49.892;10.886;2022-08-19T07:07:42;21.80;99.90
7792;DHT22;3940;49.892;10.886;2022-08-19T07:10:27;21.80;99.90
7792;DHT22;3940;49.892;10.886;2022-08-19T07:13:12;21.80;99.90
7792;DHT22;3940;49.892;10.886;2022-08-19T07:15:56;21.80;99.90
7792;DHT22;3940;49.892;10.886;2022-08-19T07:18:41;21.80;99.90
7792;DHT22;3940;49.892;10.886;2022-08-19T07:21:27;21.80;99.90
7792;DHT22;3940;49.892;10.886;2022-08-19T07:24:12;21.80;99.90
7792;DHT22;3940;49.892;10.886;2022-08-19T07:26:58;21.80;99.90
7792;DHT22;3940;49.892;10.886;2022-08-19T07:29:44;21.80;99.90
7792;DHT22;3940;49.892;10.886;2022-08-19T07:32:29;21.90;99.90
7792;DHT22;3940;49.892;10.886;2022-08-19T07:35:15;21.90;99.90
7792;DHT22;3940;49.892;10.886;2022-08-19T07:38:00;21.90;99.90
7792;DHT22;3940;49.892;10.886;2022-08-19T07:40:47;22.00;99.90
7792;DHT22;3940;49.892;10.886;2022-08-19T07:43:32;22.00;99.90
7792;DHT22;3940;49.892;10.886;2022-08-19T07:46:17;22.10;99.90
7792;DHT22;3940;49.892;10.886;2022-08-19T07:49:02;22.10;99.90
7792;DHT22;3940;49.892;10.886;2022-08-19T07:51:49;22.10;99.90
7792;DHT22;3940;49.892;10.886;2022-08-19T07:54:36;22.20;99.90
7792;DHT22;3940;49.892;10.886;2022-08-19T07:57:21;22.20;99.90
7792;DHT22;3940;49.892;10.886;2022-08-19T08:00:06;22.20;99.90
7792;DHT22;3940;49.892;10.886;2022-08-19T08:02:52;22.30;99.90
7792;DHT22;3940;49.892;10.886;2022-08-19T08:05:37;22.40;99.90
7792;DHT22;3940;49.892;10.886;2022-08-19T08:08:40;22.40;99.90
7792;DHT22;3940;49.892;10.886;2022-08-19T08:11:45;22.50;99.90
7792;DHT22;3940;49.892;10.886;2022-08-19T08:14:36;22.40;99.90
7792;DHT22;3940;49.892;10.886;2022-08-19T08:17:25;22.40;99.90
7792;DHT22;3940;49.892;10.886;2022-08-19T08:20:10;22.40;99.90
7792;DHT22;3940;49.892;10.886;2022-08-19T08:22:54;22.40;99.90
7792;DHT22;3940;49.892;10.886;2022-08-19T08:25:56;22.50;99.90
7792;DHT22;3940;49.892;10.886;2022-08-19T08:28:42;22.60;99.90
7792;DHT22;3940;49.892;10.886;2022-08-19T08:31:26;22.70;99.90
7792;DHT22;3940;49.892;10.886;2022-08-19T08:34:12;22.80;99.90
7792;DHT22;3940;49.892;10.886;2022-08-19T08:36:57;23.00;99.90
7792;DHT22;3940;49.892;10.886;2022-08-19T08:39:41;23.10;99.90
7792;DHT22;3940;49.892;10.886;2022-08-19T08:42:34;23.20;99.90
7792;DHT22;3940;49.892;10.886;2022-08-19T08:45:20;23.10;99.90
7792;DHT22;3940;49.892;10.886;2022-08-19T08:48:16;23.20;99.90
7792;DHT22;3940;49.892;10.886;2022-08-19T08:51:07;23.30;99.90
7792;DHT22;3940;49.892;10.886;2022-08-19T08:53:54;23.60;99.90
7792;DHT22;3940;49.892;10.886;2022-08-19T08:56:41;23.80;99.90
7792;DHT22;3940;49.892;10.886;2022-08-19T08:59:30;23.80;99.90
7792;DHT22;3940;49.892;10.886;2022-08-19T09:02:17;23.90;99.90
7792;DHT22;3940;49.892;10.886;2022-08-19T09:05:02;23.80;99.90
7792;DHT22;3940;49.892;10.886;2022-08-19T09:08:00;23.70;99.90
7792;DHT22;3940;49.892;10.886;2022-08-19T09:10:51;23.60;99.90
7792;DHT22;3940;49.892;10.886;2022-08-19T09:13:47;23.50;99.90
7792;DHT22;3940;49.892;10.886;2022-08-19T09:16:36;23.40;99.90
7792;DHT22;3940;49.892;10.886;2022-08-19T09:19:22;23.30;99.90
7792;DHT22;3940;49.892;10.886;2022-08-19T09:22:06;23.20;99.90
7792;DHT22;3940;49.892;10.886;2022-08-19T09:24:52;23.10;99.90
7792;DHT22;3940;49.892;10.886;2022-08-19T09:27:39;23.10;99.90
7792;DHT22;3940;49.892;10.886;2022-08-19T09:30:27;23.00;99.90
7792;DHT22;3940;49.892;10.886;2022-08-19T09:33:12;23.00;99.90
7792;DHT22;3940;49.892;10.886;2022-08-19T09:36:08;23.00;99.90
7792;DHT22;3940;49.892;10.886;2022-08-19T09:38:54;22.90;99.90
7792;DHT22;3940;49.892;10.886;2022-08-19T09:41:39;22.80;99.90
7792;DHT22;3940;49.892;10.886;2022-08-19T09:44:23;22.90;99.90
7792;DHT22;3940;49.892;10.886;2022-08-19T09:47:09;22.80;99.90
7792;DHT22;3940;49.892;10.886;2022-08-19T09:49:55;22.80;99.90
7792;DHT22;3940;49.892;10.886;2022-08-19T09:52:40;22.80;99.90
7792;DHT22;3940;49.892;10.886;2022-08-19T09:55:26;22.80;99.90
7792;DHT22;3940;49.892;10.886;2022-08-19T09:58:10;22.80;99.90
7792;DHT22;3940;49.892;10.886;2022-08-19T10:00:56;22.90;99.90
7792;DHT22;3940;49.892;10.886;2022-08-19T10:03:42;23.00;99.90
7792;DHT22;3940;49.892;10.886;2022-08-19T10:06:28;23.00;99.90
7792;DHT22;3940;49.892;10.886;2022-08-19T10:09:17;23.10;99.90
7792;DHT22;3940;49.892;10.886;2022-08-19T10:12:04;23.10;99.90
7792;DHT22;3940;49.892;10.886;2022-08-19T10:14:48;23.20;99.90
7792;DHT22;3940;49.892;10.886;2022-08-19T10:17:35;23.30;99.90
7792;DHT22;3940;49.892;10.886;2022-08-19T10:20:19;23.30;99.90
7792;DHT22;3940;49.892;10.886;2022-08-19T10:23:03;23.40;99.90
7792;DHT22;3940;49.892;10.886;2022-08-19T10:25:49;23.30;99.90
7792;DHT22;3940;49.892;10.886;2022-08-19T10:28:35;23.30;99.90
7792;DHT22;3940;49.892;10.886;2022-08-19T10:31:26;23.30;99.90
7792;DHT22;3940;49.892;10.886;2022-08-19T10:34:11;23.20;99.90
7792;DHT22;3940;49.892;10.886;2022-08-19T10:36:56;23.20;99.90
7792;DHT22;3940;49.892;10.886;2022-08-19T10:39:41;23.20;99.90
7792;DHT22;3940;49.892;10.886;2022-08-19T10:42:26;23.30;99.90
7792;DHT22;3940;49.892;10.886;2022-08-19T10:45:11;23.30;99.90
7792;DHT22;3940;49.892;10.886;2022-08-19T10:47:55;23.30;99.90
7792;DHT22;3940;49.892;10.886;2022-08-19T10:50:40;23.40;99.90
7792;DHT22;3940;49.892;10.886;2022-08-19T10:53:43;23.40;99.90
7792;DHT22;3940;49.892;10.886;2022-08-19T10:56:28;23.60;99.90
7792;DHT22;3940;49.892;10.886;2022-08-19T10:59:32;23.70;99.90
7792;DHT22;3940;49.892;10.886;2022-08-19T11:02:16;23.80;99.90
7792;DHT22;3940;49.892;10.886;2022-08-19T11:05:01;23.80;99.90
7792;DHT22;3940;49.892;10.886;2022-08-19T11:07:48;23.80;99.90
7792;DHT22;3940;49.892;10.886;2022-08-19T11:10:34;23.80;99.90
7792;DHT22;3940;49.892;10.886;2022-08-19T11:13:18;23.70;99.90
7792;DHT22;3940;49.892;10.886;2022-08-19T11:16:07;23.70;99.90
7792;DHT22;3940;49.892;10.886;2022-08-19T11:18:54;23.70;99.90
7792;DHT22;3940;49.892;10.886;2022-08-19T11:21:45;23.60;99.90
7792;DHT22;3940;49.892;10.886;2022-08-19T11:24:30;23.60;99.90
7792;DHT22;3940;49.892;10.886;2022-08-19T11:27:15;23.50;99.90
7792;DHT22;3940;49.892;10.886;2022-08-19T11:29:59;23.60;99.90
7792;DHT22;3940;49.892;10.886;2022-08-19T11:32:44;23.60;99.90
7792;DHT22;3940;49.892;10.886;2022-08-19T11:35:29;23.50;99.90
7792;DHT22;3940;49.892;10.886;2022-08-19T11:38:14;23.60;99.90
7792;DHT22;3940;49.892;10.886;2022-08-19T11:41:00;23.50;99.90
7792;DHT22;3940;49.892;10.886;2022-08-19T11:43:45;23.50;99.90
7792;DHT22;3940;49.892;10.886;2022-08-19T11:46:30;23.50;99.90
7792;DHT22;3940;49.892;10.886;2022-08-19T11:49:17;23.50;99.90
7792;DHT22;3940;49.892;10.886;2022-08-19T11:52:03;23.40;99.90
7792;DHT22;3940;49.892;10.886;2022-08-19T11:54:48;23.50;99.90
7792;DHT22;3940;49.892;10.886;2022-08-19T11:57:32;23.50;99.90
7792;DHT22;3940;49.892;10.886;2022-08-19T12:00:17;23.50;99.90
7792;DHT22;3940;49.892;10.886;2022-08-19T12:03:02;23.50;99.90
7792;DHT22;3940;49.892;10.886;2022-08-19T12:06:29;23.40;99.90
7792;DHT22;3940;49.892;10.886;2022-08-19T12:09:19;23.40;99.90
7792;DHT22;3940;49.892;10.886;2022-08-19T12:12:45;23.40;99.90
7792;DHT22;3940;49.892;10.886;2022-08-19T12:15:37;23.40;99.90
7792;DHT22;3940;49.892;10.886;2022-08-19T12:18:22;23.40;99.90
7792;DHT22;3940;49.892;10.886;2022-08-19T12:21:11;23.40;99.90
7792;DHT22;3940;49.892;10.886;2022-08-19T12:23:59;23.40;99.90
7792;DHT22;3940;49.892;10.886;2022-08-19T12:27:18;23.40;99.90
7792;DHT22;3940;49.892;10.886;2022-08-19T12:30:05;23.40;99.90
7792;DHT22;3940;49.892;10.886;2022-08-19T12:32:50;23.40;99.90
7792;DHT22;3940;49.892;10.886;2022-08-19T12:35:38;23.40;99.90
7792;DHT22;3940;49.892;10.886;2022-08-19T12:38:26;23.30;99.90
7792;DHT22;3940;49.892;10.886;2022-08-19T12:41:15;23.30;99.90
7792;DHT22;3940;49.892;10.886;2022-08-19T12:44:01;23.30;99.90
7792;DHT22;3940;49.892;10.886;2022-08-19T12:46:46;23.20;99.90
7792;DHT22;3940;49.892;10.886;2022-08-19T12:49:32;23.00;99.90
7792;DHT22;3940;49.892;10.886;2022-08-19T12:52:17;22.30;99.90
7792;DHT22;3940;49.892;10.886;2022-08-19T12:55:07;21.70;99.90
7792;DHT22;3940;49.892;10.886;2022-08-19T12:57:51;21.50;99.90
7792;DHT22;3940;49.892;10.886;2022-08-19T13:00:36;21.50;99.90
7792;DHT22;3940;49.892;10.886;2022-08-19T13:03:21;21.20;99.90
7792;DHT22;3940;49.892;10.886;2022-08-19T13:06:11;21.10;99.90
7792;DHT22;3940;49.892;10.886;2022-08-19T13:08:55;21.20;99.90
7792;DHT22;3940;49.892;10.886;2022-08-19T13:11:41;21.20;99.90
7792;DHT22;3940;49.892;10.886;2022-08-19T13:14:28;21.30;99.90
7792;DHT22;3940;49.892;10.886;2022-08-19T13:17:16;21.20;99.90
7792;DHT22;3940;49.892;10.886;2022-08-19T13:20:01;21.30;99.90
7792;DHT22;3940;49.892;10.886;2022-08-19T13:22:46;21.30;99.90
7792;DHT22;3940;49.892;10.886;2022-08-19T13:25:32;21.20;99.90
7792;DHT22;3940;49.892;10.886;2022-08-19T13:28:16;21.20;99.90
7792;DHT22;3940;49.892;10.886;2022-08-19T13:31:00;21.30;99.90
7792;DHT22;3940;49.892;10.886;2022-08-19T13:34:08;21.40;99.90
7792;DHT22;3940;49.892;10.886;2022-08-19T13:36:53;21.40;99.90
7792;DHT22;3940;49.892;10.886;2022-08-19T13:39:37;21.50;99.90
7792;DHT22;3940;49.892;10.886;2022-08-19T13:42:22;21.20;99.90
7792;DHT22;3940;49.892;10.886;2022-08-19T13:45:08;21.30;99.90
7792;DHT22;3940;49.892;10.886;2022-08-19T13:47:55;21.20;99.90
7792;DHT22;3940;49.892;10.886;2022-08-19T13:50:42;21.20;99.90
7792;DHT22;3940;49.892;10.886;2022-08-19T13:53:27;21.30;99.90
7792;DHT22;3940;49.892;10.886;2022-08-19T13:56:14;21.40;99.90
7792;DHT22;3940;49.892;10.886;2022-08-19T13:59:01;21.50;99.90
7792;DHT22;3940;49.892;10.886;2022-08-19T14:01:45;21.80;99.90
7792;DHT22;3940;49.892;10.886;2022-08-19T14:04:30;21.70;99.90
7792;DHT22;3940;49.892;10.886;2022-08-19T14:07:14;21.90;99.90
7792;DHT22;3940;49.892;10.886;2022-08-19T14:09:58;22.10;99.90
7792;DHT22;3940;49.892;10.886;2022-08-19T14:12:42;22.10;99.90
7792;DHT22;3940;49.892;10.886;2022-08-19T14:15:28;22.30;99.90
7792;DHT22;3940;49.892;10.886;2022-08-19T14:18:13;22.40;99.90
7792;DHT22;3940;49.892;10.886;2022-08-19T14:20:58;22.40;99.90
7792;DHT22;3940;49.892;10.886;2022-08-19T14:23:42;22.50;99.90
7792;DHT22;3940;49.892;10.886;2022-08-19T14:26:27;22.40;99.90
7792;DHT22;3940;49.892;10.886;2022-08-19T14:29:12;22.40;99.90
7792;DHT22;3940;49.892;10.886;2022-08-19T14:31:56;22.30;99.90
7792;DHT22;3940;49.892;10.886;2022-08-19T14:34:43;22.30;99.90
7792;DHT22;3940;49.892;10.886;2022-08-19T14:37:29;22.40;99.90
7792;DHT22;3940;49.892;10.886;2022-08-19T14:40:16;22.30;99.90
7792;DHT22;3940;49.892;10.886;2022-08-19T14:43:04;22.30;99.90
7792;DHT22;3940;49.892;10.886;2022-08-19T14:45:48;22.20;99.90
7792;DHT22;3940;49.892;10.886;2022-08-19T14:48:33;22.20;99.90
7792;DHT22;3940;49.892;10.886;2022-08-19T14:51:19;22.30;99.90
7792;DHT22;3940;49.892;10.886;2022-08-19T14:54:04;22.40;99.90
7792;DHT22;3940;49.892;10.886;2022-08-19T14:56:48;22.40;99.90
7792;DHT22;3940;49.892;10.886;2022-08-19T14:59:34;22.50;99.90
7792;DHT22;3940;49.892;10.886;2022-08-19T15:02:19;22.50;99.90
7792;DHT22;3940;49.892;10.886;2022-08-19T15:05:05;22.50;99.90
7792;DHT22;3940;49.892;10.886;2022-08-19T15:07:49;22.40;99.90
7792;DHT22;3940;49.892;10.886;2022-08-19T15:10:34;22.10;99.90
7792;DHT22;3940;49.892;10.886;2022-08-19T15:13:18;22.00;99.90
7792;DHT22;3940;49.892;10.886;2022-08-19T15:16:03;21.90;99.90
7792;DHT22;3940;49.892;10.886;2022-08-19T15:18:51;21.90;99.90
7792;DHT22;3940;49.892;10.886;2022-08-19T15:21:35;21.80;99.90
7792;DHT22;3940;49.892;10.886;2022-08-19T15:24:20;21.80;99.90
7792;DHT22;3940;49.892;10.886;2022-08-19T15:27:05;21.70;99.90
7792;DHT22;3940;49.892;10.886;2022-08-19T15:29:50;21.60;99.90
7792;DHT22;3940;49.892;10.886;2022-08-19T15:32:34;21.60;99.90
7792;DHT22;3940;49.892;10.886;2022-08-19T15:35:21;21.60;99.90
7792;DHT22;3940;49.892;10.886;2022-08-19T15:38:06;21.50;99.90
7792;DHT22;3940;49.892;10.886;2022-08-19T15:40:51;21.50;99.90
7792;DHT22;3940;49.892;10.886;2022-08-19T15:43:41;21.50;99.90
7792;DHT22;3940;49.892;10.886;2022-08-19T15:46:28;21.50;99.90
7792;DHT22;3940;49.892;10.886;2022-08-19T15:49:16;21.40;99.90
7792;DHT22;3940;49.892;10.886;2022-08-19T15:52:01;21.40;99.90
7792;DHT22;3940;49.892;10.886;2022-08-19T15:54:46;21.40;99.90
7792;DHT22;3940;49.892;10.886;2022-08-19T15:57:31;21.30;99.90
7792;DHT22;3940;49.892;10.886;2022-08-19T16:00:26;21.20;99.90
7792;DHT22;3940;49.892;10.886;2022-08-19T16:03:24;21.10;99.90
7792;DHT22;3940;49.892;10.886;2022-08-19T16:06:26;21.10;99.90
7792;DHT22;3940;49.892;10.886;2022-08-19T16:09:12;21.00;99.90
7792;DHT22;3940;49.892;10.886;2022-08-19T16:11:58;21.00;99.90
7792;DHT22;3940;49.892;10.886;2022-08-19T16:14:44;20.90;99.90
7792;DHT22;3940;49.892;10.886;2022-08-19T16:17:30;21.00;99.90
7792;DHT22;3940;49.892;10.886;2022-08-19T16:20:15;21.10;99.90
7792;DHT22;3940;49.892;10.886;2022-08-19T16:23:00;21.00;99.90
7792;DHT22;3940;49.892;10.886;2022-08-19T16:25:47;21.10;99.90
7792;DHT22;3940;49.892;10.886;2022-08-19T16:28:32;21.00;99.90
7792;DHT22;3940;49.892;10.886;2022-08-19T16:31:16;21.00;99.90
7792;DHT22;3940;49.892;10.886;2022-08-19T16:34:01;21.00;99.90
7792;DHT22;3940;49.892;10.886;2022-08-19T16:36:45;21.10;99.90
7792;DHT22;3940;49.892;10.886;2022-08-19T16:39:30;21.10;99.90
7792;DHT22;3940;49.892;10.886;2022-08-19T16:42:14;21.10;99.90
7792;DHT22;3940;49.892;10.886;2022-08-19T16:44:59;21.10;99.90
7792;DHT22;3940;49.892;10.886;2022-08-19T16:47:44;21.20;99.90
7792;DHT22;3940;49.892;10.886;2022-08-19T16:50:28;21.10;99.90
7792;DHT22;3940;49.892;10.886;2022-08-19T16:53:14;20.90;99.90
7792;DHT22;3940;49.892;10.886;2022-08-19T16:55:58;20.60;99.90
7792;DHT22;3940;49.892;10.886;2022-08-19T16:58:43;20.60;99.90
7792;DHT22;3940;49.892;10.886;2022-08-19T17:01:27;20.50;99.90
7792;DHT22;3940;49.892;10.886;2022-08-19T17:04:12;20.70;99.90
7792;DHT22;3940;49.892;10.886;2022-08-19T17:06:56;20.50;99.90
7792;DHT22;3940;49.892;10.886;2022-08-19T17:09:40;20.50;99.90
7792;DHT22;3940;49.892;10.886;2022-08-19T17:12:25;20.50;99.90
7792;DHT22;3940;49.892;10.886;2022-08-19T17:15:10;20.50;99.90
7792;DHT22;3940;49.892;10.886;2022-08-19T17:17:59;20.30;99.90
7792;DHT22;3940;49.892;10.886;2022-08-19T17:20:43;20.20;99.90
7792;DHT22;3940;49.892;10.886;2022-08-19T17:23:29;20.10;99.90
7792;DHT22;3940;49.892;10.886;2022-08-19T17:26:15;20.10;99.90
7792;DHT22;3940;49.892;10.886;2022-08-19T17:29:00;20.10;99.90
7792;DHT22;3940;49.892;10.886;2022-08-19T17:31:44;20.10;99.90
7792;DHT22;3940;49.892;10.886;2022-08-19T17:34:29;20.30;99.90
7792;DHT22;3940;49.892;10.886;2022-08-19T17:37:13;20.30;99.90
7792;DHT22;3940;49.892;10.886;2022-08-19T17:40:01;20.20;99.90
7792;DHT22;3940;49.892;10.886;2022-08-19T17:42:46;20.20;99.90
7792;DHT22;3940;49.892;10.886;2022-08-19T17:45:31;20.20;99.90
7792;DHT22;3940;49.892;10.886;2022-08-19T17:48:15;20.10;99.90